Time;durP1;ratioP1;P1;durP2;ratioP2;P2;SDS_P1;SDS_P2;PMS_P1;PMS_P2;Temp;Humidity;BMP_temperature;BMP_pressure;BME280_temperature;BME280_humidity;BME280_pressure;Samples;Min_cycle;Max_cycle;Signal;HPM_P1;HPM_P2
2022/08/22 00:00:23;;;;;;;3.08;1.83;;;;;;;17.49;95.59;96439.13;5056778;28;20584;-53
2022/08/22 00:03:02;;;;;;;1.85;1.75;;;;;;;17.51;95.24;96455.78;5056281;28;20683;-53
2022/08/22 00:05:33;;;;;;;2.95;1.95;;;;;;;17.50;95.33;96443.47;5056551;28;20239;-54
2022/08/22 00:08:04;;;;;;;4.25;2.50;;;;;;;17.48;96.44;96445.47;5056566;28;20290;-54
2022/08/22 00:10:39;;;;;;;1.67;1.58;;;;;;;17.50;96.81;96451.50;5057084;28;20272;-53
2022/08/22 00:13:10;;;;;;;2.38;1.90;;;;;;;17.53;96.01;96457.28;5056905;28;20282;-56
2022/08/22 00:15:40;;;;;;;1.75;1.65;;;;;;;17.56;94.32;96451.59;5056621;28;20600;-53
2022/08/22 00:18:11;;;;;;;2.30;2.10;;;;;;;17.54;94.84;96450.91;5056368;28;20297;-53
2022/08/22 00:20:41;;;;;;;2.30;1.80;;;;;;;17.47;96.58;96450.00;5056488;28;20203;-52
2022/08/22 00:23:12;;;;;;;2.50;1.88;;;;;;;17.46;96.94;96445.69;5056600;28;20217;-54
2022/08/22 00:25:48;;;;;;;3.08;2.00;;;;;;;17.40;98.55;96449.09;5056729;28;20639;-54
2022/08/22 00:28:19;;;;;;;1.80;1.70;;;;;;;17.42;97.84;96445.25;5056882;28;20199;-54
2022/08/22 00:30:52;;;;;;;2.50;1.95;;;;;;;17.41;98.91;96450.78;5057291;28;20215;-54
2022/08/22 00:33:27;;;;;;;1.90;1.80;;;;;;;17.38;99.95;96459.16;5056859;28;20235;-55
2022/08/22 00:36:05;;;;;;;3.72;1.88;;;;;;;17.35;100.00;96451.53;5056622;28;20265;-55
2022/08/22 00:38:36;;;;;;;2.10;1.92;;;;;;;17.37;100.00;96453.00;5049554;28;20215;-55
2022/08/22 00:41:06;;;;;;;4.15;2.00;;;;;;;17.34;100.00;96452.53;5051211;28;20581;-53
2022/08/22 00:43:54;;;;;;;1.88;1.77;;;;;;;17.28;100.00;96443.44;5056046;28;20291;-53
2022/08/22 00:46:39;;;;;;;2.67;1.77;;;;;;;17.39;99.07;96447.47;5053828;28;20302;-54
2022/08/22 00:49:18;;;;;;;1.92;1.75;;;;;;;17.32;99.53;96443.91;5055604;28;20326;-53
2022/08/22 00:52:04;;;;;;;6.38;1.77;;;;;;;17.27;100.00;96444.47;5047622;28;20296;-50
2022/08/22 00:54:47;;;;;;;1.80;1.70;;;;;;;17.26;100.00;96447.31;5054359;28;20282;-50
2022/08/22 00:57:31;;;;;;;3.17;1.75;;;;;;;17.26;100.00;96450.81;5055385;28;20198;-52
2022/08/22 01:00:11;;;;;;;4.25;1.90;;;;;;;17.21;100.00;96455.09;5054840;28;20223;-52
2022/08/22 01:02:57;;;;;;;3.13;1.90;;;;;;;17.27;100.00;96452.47;5055640;28;20222;-51
2022/08/22 01:05:43;;;;;;;2.17;2.00;;;;;;;17.28;99.97;96450.63;5055502;28;20203;-52
2022/08/22 01:08:21;;;;;;;2.17;1.95;;;;;;;17.28;100.00;96450.63;5055558;28;20282;-52
2022/08/22 01:11:00;;;;;;;2.55;2.00;;;;;;;17.21;100.00;96449.75;5055530;28;20219;-51
2022/08/22 01:13:40;;;;;;;2.45;1.58;;;;;;;17.19;100.00;96455.25;5055373;28;20234;-53
2022/08/22 01:16:21;;;;;;;2.85;2.10;;;;;;;17.17;100.00;96457.31;5055473;28;20281;-52
2022/08/22 01:19:07;;;;;;;5.03;1.95;;;;;;;17.19;100.00;96457.09;5054641;28;20203;-54
2022/08/22 01:22:19;;;;;;;2.40;1.60;;;;;;;17.19;100.00;96454.44;5078792;28;20297;-53
2022/08/22 01:25:27;;;;;;;2.83;2.00;;;;;;;17.23;98.98;96447.69;5069126;28;20190;-52
2022/08/22 01:28:25;;;;;;;5.13;1.77;;;;;;;17.13;99.67;96449.84;5058082;28;20195;-53
2022/08/22 01:31:31;;;;;;;1.67;1.50;;;;;;;17.16;98.27;96457.47;5046064;28;20225;-53
2022/08/22 01:34:30;;;;;;;2.10;1.90;;;;;;;17.04;99.86;96453.66;5055327;28;20210;-52
2022/08/22 01:37:22;;;;;;;4.82;1.80;;;;;;;17.02;100.00;96450.31;5042300;28;20238;-52
2022/08/22 01:40:11;;;;;;;1.88;1.75;;;;;;;16.99;100.00;96446.19;5055750;28;20585;-53
2022/08/22 01:42:56;;;;;;;2.05;1.40;;;;;;;16.95;100.00;96438.72;5004111;28;20212;-52
2022/08/22 01:45:38;;;;;;;2.78;2.25;;;;;;;16.98;100.00;96435.69;5055790;28;20636;-53
2022/08/22 01:48:10;;;;;;;2.75;1.92;;;;;;;16.95;100.00;96444.91;5054252;28;20321;-53
2022/08/22 01:50:42;;;;;;;6.88;1.75;;;;;;;16.93;100.00;96447.75;5055935;28;20307;-54
2022/08/22 01:53:15;;;;;;;1.88;1.70;;;;;;;16.95;100.00;96439.56;5062280;28;20267;-54
2022/08/22 01:55:47;;;;;;;1.70;1.60;;;;;;;16.93;99.31;96441.59;5073675;28;20256;-54
2022/08/22 01:58:16;;;;;;;2.13;2.03;;;;;;;16.87;99.59;96439.66;5070794;28;20218;-52
2022/08/22 02:00:57;;;;;;;3.20;2.00;;;;;;;16.84;100.00;96445.38;5072260;28;20226;-53
2022/08/22 02:03:28;;;;;;;3.03;2.07;;;;;;;16.84;100.00;96440.03;5071259;28;20218;-55
2022/08/22 02:06:07;;;;;;;1.88;1.77;;;;;;;16.81;100.00;96438.59;5054872;28;20203;-52
2022/08/22 02:08:43;;;;;;;5.63;2.53;;;;;;;16.75;100.00;96439.34;5054934;28;20203;-51
2022/08/22 02:11:12;;;;;;;7.10;2.28;;;;;;;16.77;100.00;96441.81;5054436;28;20211;-54
2022/08/22 02:13:51;;;;;;;3.10;2.08;;;;;;;16.74;100.00;96439.50;5054572;28;20206;-53
2022/08/22 02:16:25;;;;;;;3.90;2.00;;;;;;;16.74;100.00;96437.66;5054024;28;20676;-54
2022/08/22 02:19:05;;;;;;;2.08;1.98;;;;;;;16.78;100.00;96438.13;5055304;28;20297;-52
2022/08/22 02:21:54;;;;;;;3.75;2.00;;;;;;;16.69;100.00;96434.72;5054924;28;20591;-54
2022/08/22 02:24:37;;;;;;;4.75;2.00;;;;;;;16.61;100.00;96429.50;5054132;28;20659;-52
2022/08/22 02:27:10;;;;;;;3.38;1.88;;;;;;;16.54;100.00;96428.56;5054539;28;20279;-53
2022/08/22 02:29:42;;;;;;;4.53;2.08;;;;;;;16.52;100.00;96427.06;5054659;28;20205;-53
2022/08/22 02:32:19;;;;;;;2.08;1.98;;;;;;;16.52;100.00;96427.06;5054523;28;20301;-53
2022/08/22 02:34:55;;;;;;;2.20;2.10;;;;;;;16.52;100.00;96435.06;5054119;28;20199;-55
2022/08/22 02:37:33;;;;;;;3.10;1.85;;;;;;;16.44;100.00;96423.47;5054064;28;20217;-54
2022/08/22 02:40:07;;;;;;;3.03;2.05;;;;;;;16.46;100.00;96425.97;5054136;28;20633;-54
2022/08/22 02:42:40;;;;;;;3.53;2.00;;;;;;;16.38;100.00;96424.22;5054523;28;20212;-53
2022/08/22 02:45:22;;;;;;;2.35;1.92;;;;;;;16.35;100.00;96415.75;5054180;28;20290;-54
2022/08/22 02:47:55;;;;;;;3.38;2.10;;;;;;;16.30;100.00;96418.97;5053935;28;20305;-54
2022/08/22 02:50:28;;;;;;;2.75;1.80;;;;;;;16.30;100.00;96418.97;5054918;28;20257;-54
2022/08/22 02:53:03;;;;;;;1.85;1.75;;;;;;;16.26;100.00;96422.22;5055058;28;20203;-52
2022/08/22 02:55:36;;;;;;;1.90;1.80;;;;;;;16.20;100.00;96417.59;5055998;28;20285;-53
2022/08/22 02:58:07;;;;;;;3.15;2.30;;;;;;;16.21;100.00;96414.75;5044418;28;20243;-49
2022/08/22 03:00:46;;;;;;;2.30;2.05;;;;;;;16.21;100.00;96421.91;5042763;28;20287;-53
2022/08/22 03:03:21;;;;;;;2.08;1.98;;;;;;;16.17;100.00;96423.28;5057439;28;20235;-50
2022/08/22 03:05:57;;;;;;;3.43;2.00;;;;;;;16.15;100.00;96411.97;5058421;28;20202;-52
2022/08/22 03:08:28;;;;;;;1.92;1.77;;;;;;;16.13;100.00;96422.00;5056508;28;20670;-51
2022/08/22 03:11:01;;;;;;;4.07;2.38;;;;;;;16.12;100.00;96420.34;5056636;28;20306;-52
2022/08/22 03:13:37;;;;;;;1.98;1.77;;;;;;;16.00;100.00;96414.63;5056738;28;20198;-51
2022/08/22 03:16:10;;;;;;;3.50;2.00;;;;;;;16.00;100.00;96411.13;5057200;28;20635;-50
2022/08/22 03:18:44;;;;;;;2.47;2.22;;;;;;;16.07;100.00;96414.72;5057263;28;20199;-51
2022/08/22 03:21:16;;;;;;;3.95;2.03;;;;;;;16.02;100.00;96425.09;5057476;28;20245;-51
2022/08/22 03:23:50;;;;;;;3.15;1.85;;;;;;;15.98;100.00;96415.84;5057731;28;20294;-51
2022/08/22 03:26:22;;;;;;;2.13;1.90;;;;;;;15.96;100.00;96413.34;5057408;28;20289;-51
2022/08/22 03:28:52;;;;;;;1.90;1.80;;;;;;;15.97;100.00;96416.84;5057416;28;20274;-50
2022/08/22 03:31:21;;;;;;;2.13;2.03;;;;;;;15.92;100.00;96415.53;5056456;28;20615;-50
2022/08/22 03:34:19;;;;;;;3.47;1.95;;;;;;;15.94;100.00;96410.84;5045522;28;20213;-50
2022/08/22 03:36:48;;;;;;;2.45;2.08;;;;;;;15.96;100.00;96415.16;5056879;28;20211;-51
2022/08/22 03:39:18;;;;;;;2.30;2.10;;;;;;;16.00;100.00;96413.81;5057116;28;20298;-51
2022/08/22 03:42:03;;;;;;;2.40;2.20;;;;;;;15.93;100.00;96416.38;5056931;28;20278;-51
2022/08/22 03:44:49;;;;;;;3.47;1.97;;;;;;;15.84;100.00;96418.28;5056704;28;20674;-50
2022/08/22 03:47:34;;;;;;;2.27;2.17;;;;;;;15.78;100.00;96419.00;5057104;28;20294;-49
2022/08/22 03:50:27;;;;;;;2.30;2.20;;;;;;;15.73;100.00;96413.38;5057240;28;20249;-51
2022/08/22 03:53:20;;;;;;;3.67;2.30;;;;;;;15.74;100.00;96417.69;5056680;28;20598;-51
2022/08/22 03:56:22;;;;;;;2.27;1.97;;;;;;;15.73;100.00;96410.69;5056672;28;20231;-51
2022/08/22 03:59:11;;;;;;;2.20;2.10;;;;;;;15.69;100.00;96408.59;5056996;28;20290;-51
2022/08/22 04:01:48;;;;;;;2.70;2.50;;;;;;;15.73;100.00;96410.69;5056784;28;20278;-51
2022/08/22 04:04:34;;;;;;;5.17;2.00;;;;;;;15.67;100.00;96414.09;5056782;28;20282;-50
2022/08/22 04:07:21;;;;;;;3.37;2.20;;;;;;;15.62;100.00;96416.50;5055239;28;20253;-51
2022/08/22 04:10:13;;;;;;;2.33;2.17;;;;;;;15.65;100.00;96416.13;5056079;28;20245;-51
2022/08/22 04:13:00;;;;;;;2.40;2.20;;;;;;;15.62;100.00;96418.31;5056539;28;20290;-49
2022/08/22 04:16:18;;;;;;;2.85;2.40;;;;;;;15.61;100.00;96419.31;5055947;28;20206;-51
2022/08/22 04:19:04;;;;;;;2.80;2.20;;;;;;;15.59;100.00;96424.03;5038853;28;20219;-51
2022/08/22 04:22:07;;;;;;;2.20;2.10;;;;;;;15.52;100.00;96418.56;5056952;28;20214;-51
2022/08/22 04:24:52;;;;;;;2.73;2.47;;;;;;;15.62;100.00;96421.00;5051715;28;20609;-51
2022/08/22 04:27:23;;;;;;;2.50;2.33;;;;;;;15.54;100.00;96416.56;5042472;28;20286;-50
2022/08/22 04:29:55;;;;;;;3.23;2.53;;;;;;;15.54;100.00;96421.88;5056206;28;20227;-51
2022/08/22 04:32:29;;;;;;;5.63;2.55;;;;;;;15.54;100.00;96421.06;5056164;28;20751;-51
2022/08/22 04:34:59;;;;;;;2.97;2.60;;;;;;;15.59;100.00;96424.81;5056289;28;20602;-51
2022/08/22 04:37:32;;;;;;;2.60;2.50;;;;;;;15.56;100.00;96419.84;5055521;28;20242;-50
2022/08/22 04:40:06;;;;;;;3.70;2.83;;;;;;;15.57;100.00;96426.84;5050758;28;20373;-50
2022/08/22 04:42:36;;;;;;;2.50;2.38;;;;;;;15.56;100.00;96433.19;5049619;28;20239;-51
2022/08/22 04:45:07;;;;;;;2.77;2.53;;;;;;;15.60;100.00;96431.81;5055984;28;20200;-51
2022/08/22 04:47:36;;;;;;;2.87;2.67;;;;;;;15.61;100.00;96430.00;5055549;28;20231;-51
2022/08/22 04:50:06;;;;;;;3.43;2.60;;;;;;;15.58;100.00;96438.34;5056486;28;20234;-51
2022/08/22 04:52:42;;;;;;;2.95;2.75;;;;;;;15.55;100.00;96436.88;5055986;28;20215;-52
2022/08/22 04:55:24;;;;;;;2.90;2.67;;;;;;;15.54;100.00;96440.53;5056043;28;20282;-51
2022/08/22 04:57:57;;;;;;;3.30;2.70;;;;;;;15.58;100.00;96441.84;5055271;28;20290;-51
2022/08/22 05:00:24;;;;;;;2.80;2.57;;;;;;;15.61;100.00;96445.97;5055061;28;20624;-51
2022/08/22 05:02:53;;;;;;;6.47;5.83;;;;;;;15.63;100.00;96452.78;5055669;28;20630;-50
2022/08/22 05:05:23;;;;;;;3.27;2.97;;;;;;;15.66;100.00;96451.63;5055322;28;20207;-50
2022/08/22 05:07:52;;;;;;;2.83;2.60;;;;;;;15.67;100.00;96459.41;5054975;28;20291;-50
2022/08/22 05:10:23;;;;;;;2.40;2.30;;;;;;;15.71;100.00;96457.22;5055067;28;20607;-51
2022/08/22 05:12:54;;;;;;;2.40;2.20;;;;;;;15.72;100.00;96454.41;5054934;28;20287;-51
2022/08/22 05:15:24;;;;;;;2.70;2.60;;;;;;;15.76;100.00;96458.38;5055055;28;20345;-51
2022/08/22 05:17:52;;;;;;;3.20;2.40;;;;;;;15.81;100.00;96457.81;5055328;28;20302;-50
2022/08/22 05:20:22;;;;;;;3.87;2.80;;;;;;;15.85;100.00;96454.59;5054788;28;20294;-51
2022/08/22 05:22:54;;;;;;;3.30;2.47;;;;;;;15.97;100.00;96460.34;5044847;28;20211;-51
2022/08/22 05:25:26;;;;;;;2.80;2.40;;;;;;;16.07;100.00;96457.41;5053101;28;20303;-50
2022/08/22 05:27:55;;;;;;;3.20;2.83;;;;;;;16.10;100.00;96454.38;5054980;28;20253;-51
2022/08/22 05:30:25;;;;;;;2.70;2.50;;;;;;;16.20;100.00;96461.09;5041809;28;20626;-51
2022/08/22 05:32:56;;;;;;;5.20;3.10;;;;;;;16.24;100.00;96453.56;5054993;28;20290;-51
2022/08/22 05:35:29;;;;;;;4.77;2.97;;;;;;;16.30;100.00;96456.31;5054596;28;20662;-51
2022/08/22 05:37:56;;;;;;;3.40;3.00;;;;;;;16.41;100.00;96458.53;5054505;28;20286;-51
2022/08/22 05:40:27;;;;;;;4.40;3.10;;;;;;;16.53;100.00;96453.59;5055047;28;20588;-51
2022/08/22 05:42:55;;;;;;;4.60;3.23;;;;;;;16.77;100.00;96457.81;5054549;28;20723;-51
2022/08/22 05:45:22;;;;;;;3.42;3.13;;;;;;;16.99;100.00;96461.41;5054879;28;20290;-51
2022/08/22 05:47:51;;;;;;;5.32;3.13;;;;;;;17.17;100.00;96457.31;5054217;28;20334;-50
2022/08/22 05:50:20;;;;;;;3.40;3.10;;;;;;;17.54;100.00;96460.75;5054523;28;20246;-50
2022/08/22 05:53:00;;;;;;;5.97;3.63;;;;;;;17.87;100.00;96461.94;5054293;28;20625;-50
2022/08/22 05:55:30;;;;;;;4.80;3.40;;;;;;;18.50;100.00;96457.44;5054192;28;20238;-50
2022/08/22 05:58:25;;;;;;;3.95;3.00;;;;;;;19.23;98.01;96467.56;5041465;28;20293;-51
2022/08/22 06:00:57;;;;;;;6.05;3.60;;;;;;;20.04;88.52;96462.97;5054326;28;20234;-51
2022/08/22 06:03:26;;;;;;;7.38;3.67;;;;;;;20.66;86.13;96463.34;5054804;28;20299;-50
2022/08/22 06:05:56;;;;;;;5.65;3.38;;;;;;;21.03;82.39;96460.97;5054157;28;20307;-51
2022/08/22 06:08:25;;;;;;;5.30;3.03;;;;;;;21.44;80.42;96463.28;5054416;28;20287;-52
2022/08/22 06:10:58;;;;;;;3.00;2.80;;;;;;;21.83;77.73;96466.59;5054224;28;20318;-51
2022/08/22 06:13:31;;;;;;;3.72;2.97;;;;;;;22.10;76.79;96477.22;5054135;28;20632;-50
2022/08/22 06:16:05;;;;;;;3.40;3.15;;;;;;;22.63;73.25;96477.56;5053950;28;20280;-51
2022/08/22 06:18:32;;;;;;;5.40;3.00;;;;;;;22.74;72.03;96477.66;5054627;28;20229;-51
2022/08/22 06:21:01;;;;;;;4.65;3.08;;;;;;;22.81;71.40;96474.94;5054539;28;20294;-51
2022/08/22 06:23:38;;;;;;;4.68;3.15;;;;;;;22.63;72.16;96478.41;5054700;28;20222;-52
2022/08/22 06:26:07;;;;;;;3.20;3.00;;;;;;;22.45;72.76;96475.66;5054556;28;20234;-52
2022/08/22 06:28:40;;;;;;;4.63;3.38;;;;;;;22.51;73.55;96480.16;5053873;28;20206;-52
2022/08/22 06:31:09;;;;;;;3.63;3.25;;;;;;;22.86;71.46;96477.75;5056474;28;20229;-52
2022/08/22 06:33:38;;;;;;;3.40;3.03;;;;;;;22.56;72.92;96479.50;5057422;28;20317;-51
2022/08/22 06:39:06;;;;;;;3.47;3.17;;;;;;;22.83;71.12;96472.00;5048524;28;20295;-50
2022/08/22 06:41:39;;;;;;;4.95;3.22;;;;;;;23.18;71.01;96473.03;5057993;28;20274;-53
2022/08/22 06:44:07;;;;;;;3.53;3.00;;;;;;;23.20;71.67;96479.06;5058339;28;20282;-52
2022/08/22 06:46:36;;;;;;;4.22;3.05;;;;;;;23.09;69.80;96477.13;5057559;28;20384;-53
2022/08/22 06:49:04;;;;;;;3.67;2.90;;;;;;;23.21;73.77;96478.00;5057503;28;20289;-50
2022/08/22 06:51:31;;;;;;;3.75;3.45;;;;;;;23.47;70.65;96479.56;5057830;28;20291;-51
2022/08/22 06:54:00;;;;;;;4.90;3.08;;;;;;;23.64;70.55;96485.97;5058237;28;20211;-50
2022/08/22 06:56:30;;;;;;;3.42;3.13;;;;;;;23.63;69.24;96489.75;5057867;28;20290;-50
2022/08/22 06:59:00;;;;;;;5.90;3.13;;;;;;;23.75;70.19;96487.91;5058077;28;20310;-51
2022/08/22 07:01:32;;;;;;;4.50;2.95;;;;;;;23.79;69.18;96487.22;5057567;28;20282;-50
2022/08/22 07:04:04;;;;;;;5.85;2.85;;;;;;;24.09;68.71;96494.50;5058059;28;20213;-53
2022/08/22 07:06:34;;;;;;;4.03;2.80;;;;;;;24.12;68.48;96491.31;5057752;28;20237;-52
2022/08/22 07:09:01;;;;;;;3.67;2.65;;;;;;;24.26;68.48;96485.50;5057515;28;20278;-50
2022/08/22 07:11:30;;;;;;;7.03;2.90;;;;;;;24.19;69.77;96489.38;5057410;28;20258;-50
2022/08/22 07:14:01;;;;;;;7.22;2.85;;;;;;;24.39;67.99;96487.16;5056123;28;20283;-52
2022/08/22 07:16:30;;;;;;;4.25;2.97;;;;;;;24.39;67.29;96492.56;5057297;28;20217;-52
2022/08/22 07:18:57;;;;;;;3.15;2.95;;;;;;;24.73;64.34;96496.34;5057851;28;20234;-51
2022/08/22 07:21:27;;;;;;;3.92;2.83;;;;;;;24.94;65.69;96486.84;5054628;28;20223;-52
2022/08/22 07:23:54;;;;;;;3.35;2.35;;;;;;;25.00;66.32;96494.03;5057813;28;20230;-51
2022/08/22 07:26:28;;;;;;;4.57;2.70;;;;;;;24.56;65.44;96488.09;5060441;28;20235;-52
2022/08/22 07:28:59;;;;;;;3.13;2.90;;;;;;;24.57;63.29;96487.06;5059156;28;20278;-51
2022/08/22 07:31:35;;;;;;;2.97;2.75;;;;;;;24.41;63.59;96493.16;5059436;28;20673;-51
2022/08/22 07:34:16;;;;;;;2.78;2.58;;;;;;;24.47;64.46;96497.63;5059630;28;20230;-51
2022/08/22 07:36:47;;;;;;;2.40;2.20;;;;;;;24.91;65.80;96498.13;5049051;28;20314;-52
2022/08/22 07:39:22;;;;;;;4.85;2.53;;;;;;;24.84;62.89;96498.25;5059100;28;20282;-51
2022/08/22 07:42:00;;;;;;;2.95;2.30;;;;;;;24.65;63.63;96494.00;5058367;28;20202;-53
2022/08/22 07:44:31;;;;;;;2.80;2.20;;;;;;;24.95;62.22;96496.59;5058130;28;20199;-53
2022/08/22 07:47:01;;;;;;;5.20;2.60;;;;;;;25.09;61.97;96495.28;5058365;28;20286;-51
2022/08/22 07:49:30;;;;;;;6.55;2.60;;;;;;;25.10;64.20;96495.06;5044837;28;20230;-51
2022/08/22 07:52:00;;;;;;;3.03;2.75;;;;;;;24.80;63.27;96490.84;5056789;28;20327;-52
2022/08/22 07:54:35;;;;;;;3.00;2.80;;;;;;;25.02;62.16;96486.47;5056909;28;20203;-51
2022/08/22 07:57:05;;;;;;;2.85;2.65;;;;;;;25.16;63.35;96485.97;5056030;28;20597;-50
2022/08/22 07:59:36;;;;;;;2.80;2.60;;;;;;;25.08;62.49;96480.94;5056979;28;20234;-51
2022/08/22 08:02:06;;;;;;;3.22;2.58;;;;;;;24.75;59.57;96488.81;5057388;28;20274;-51
2022/08/22 08:04:34;;;;;;;3.65;2.58;;;;;;;24.71;60.29;96488.47;5056456;28;20245;-50
2022/08/22 08:07:03;;;;;;;3.90;2.78;;;;;;;24.75;62.01;96489.66;5055596;28;20287;-50
2022/08/22 08:09:33;;;;;;;3.17;2.45;;;;;;;25.12;61.10;96481.28;5056728;28;20305;-53
2022/08/22 08:12:01;;;;;;;3.92;2.50;;;;;;;25.21;58.83;96480.69;5056573;28;20245;-50
2022/08/22 08:14:28;;;;;;;4.45;2.67;;;;;;;25.21;62.19;96483.41;5056824;28;20280;-52
2022/08/22 08:17:01;;;;;;;2.60;2.40;;;;;;;24.95;56.58;96488.47;5059501;28;20218;-50
2022/08/22 08:19:29;;;;;;;3.95;2.35;;;;;;;25.06;60.02;96474.13;5072307;28;20207;-51
2022/08/22 08:21:56;;;;;;;4.43;2.10;;;;;;;24.93;57.87;96479.78;5070028;28;20540;-52
2022/08/22 08:24:25;;;;;;;2.53;2.33;;;;;;;24.99;59.35;96478.84;5066334;28;20203;-51
2022/08/22 08:29:40;;;;;;;3.92;2.42;;;;;;;24.90;57.42;96478.41;5046351;28;20635;-51
2022/08/22 08:32:10;;;;;;;2.30;2.10;;;;;;;25.29;59.14;96475.97;5062410;28;20257;-52
2022/08/22 08:34:37;;;;;;;2.53;2.20;;;;;;;25.37;58.06;96478.28;5058780;28;20238;-51
2022/08/22 08:37:10;;;;;;;4.10;2.30;;;;;;;25.45;57.95;96473.31;5059508;28;20279;-51
2022/08/22 08:39:41;;;;;;;2.60;2.40;;;;;;;25.17;55.58;96473.28;5054173;28;20265;-52
2022/08/22 08:45:31;;;;;;;2.70;2.50;;;;;;;25.72;58.91;96470.88;5052626;28;20654;-51
2022/08/22 08:48:22;;;;;;;2.97;2.30;;;;;;;25.64;55.86;96472.13;5064454;28;20251;-52
2022/08/22 08:51:01;;;;;;;2.45;2.25;;;;;;;25.67;59.04;96470.81;5067591;28;20227;-51
2022/08/22 08:53:51;;;;;;;4.03;2.78;;;;;;;25.83;55.58;96470.00;5067297;28;20241;-52
2022/08/22 08:56:26;;;;;;;2.28;2.17;;;;;;;26.16;57.21;96469.25;5051860;28;20252;-52
2022/08/22 08:58:59;;;;;;;2.90;2.20;;;;;;;26.35;57.74;96465.28;5054448;28;20202;-51
2022/08/22 09:01:52;;;;;;;2.65;2.30;;;;;;;26.48;56.05;96472.25;5054388;28;20199;-52
2022/08/22 09:04:54;;;;;;;2.30;2.10;;;;;;;26.20;56.85;96470.44;5055157;28;20199;-52
2022/08/22 09:07:47;;;;;;;2.40;2.20;;;;;;;26.44;57.77;96471.91;5054728;28;20677;-51
2022/08/22 09:10:41;;;;;;;4.82;1.98;;;;;;;26.89;54.62;96469.09;5054262;28;20192;-52
2022/08/22 09:13:22;;;;;;;2.65;2.22;;;;;;;26.97;54.19;96465.13;5051326;28;20656;-51
2022/08/22 09:16:06;;;;;;;2.60;2.40;;;;;;;26.90;55.47;96464.50;5052337;28;20241;-52
2022/08/22 09:19:00;;;;;;;2.15;2.05;;;;;;;27.00;55.97;96456.50;5049116;28;20234;-51
2022/08/22 09:21:50;;;;;;;2.88;2.20;;;;;;;26.93;54.44;96459.41;5054132;28;20235;-52
2022/08/22 09:24:47;;;;;;;2.28;2.08;;;;;;;27.14;54.35;96455.88;5053558;28;20199;-52
2022/08/22 09:27:18;;;;;;;3.47;2.20;;;;;;;26.98;54.26;96455.94;5050987;28;20238;-51
2022/08/22 09:29:48;;;;;;;2.30;2.10;;;;;;;27.10;54.02;96456.66;5054418;28;20208;-52
2022/08/22 09:32:19;;;;;;;3.05;1.90;;;;;;;27.25;54.96;96456.00;5054723;28;20226;-51
2022/08/22 09:35:03;;;;;;;2.60;2.40;;;;;;;26.68;50.50;96446.25;5054639;28;20199;-51
2022/08/22 09:37:39;;;;;;;4.53;2.20;;;;;;;26.94;51.58;96446.66;5054577;28;20217;-52
2022/08/22 09:40:14;;;;;;;2.17;1.98;;;;;;;27.26;51.80;96447.63;5049897;28;20264;-52
2022/08/22 09:42:47;;;;;;;2.70;2.30;;;;;;;27.42;53.79;96445.94;5054589;28;20222;-51
2022/08/22 09:45:40;;;;;;;2.50;2.30;;;;;;;27.21;50.56;96439.41;5054178;28;20286;-51
2022/08/22 09:48:24;;;;;;;2.72;2.20;;;;;;;27.22;53.54;96441.06;5054472;28;20300;-50
2022/08/22 09:50:58;;;;;;;2.92;2.28;;;;;;;26.99;51.37;96435.88;5055262;28;20199;-51
2022/08/22 09:53:39;;;;;;;3.58;2.60;;;;;;;26.49;51.59;96447.59;5054670;28;20238;-52
2022/08/22 09:56:11;;;;;;;4.45;2.22;;;;;;;26.69;52.56;96439.78;5054563;28;20290;-51
2022/08/22 09:58:44;;;;;;;2.63;2.42;;;;;;;26.89;51.44;96441.97;5053943;28;20241;-52
2022/08/22 10:01:16;;;;;;;2.42;2.30;;;;;;;27.01;53.18;96437.25;5052012;28;20239;-53
2022/08/22 10:04:28;;;;;;;3.17;2.22;;;;;;;27.33;52.96;96442.81;5054356;28;20287;-51
2022/08/22 10:07:02;;;;;;;3.00;2.70;;;;;;;27.57;50.15;96449.66;5045026;28;20282;-56
2022/08/22 10:09:34;;;;;;;3.03;2.40;;;;;;;27.62;48.02;96443.47;5043152;28;20218;-53
2022/08/22 10:12:08;;;;;;;3.28;2.42;;;;;;;27.63;49.84;96445.91;5053769;28;20694;-54
2022/08/22 10:14:46;;;;;;;2.40;2.20;;;;;;;27.55;49.92;96443.66;5054694;28;20282;-54
2022/08/22 10:17:17;;;;;;;2.58;2.38;;;;;;;27.89;51.88;96446.19;5053709;28;20726;-55
2022/08/22 10:19:48;;;;;;;2.55;2.35;;;;;;;27.77;49.45;96448.25;5054190;28;20588;-54
2022/08/22 10:22:22;;;;;;;2.40;2.20;;;;;;;27.67;49.76;96443.50;5046347;28;20199;-55
2022/08/22 10:24:59;;;;;;;2.28;2.17;;;;;;;27.74;50.64;96441.41;5053804;28;20281;-55
2022/08/22 10:27:42;;;;;;;2.70;2.50;;;;;;;27.52;46.99;96449.63;5054104;28;20207;-54
2022/08/22 10:30:10;;;;;;;2.85;2.30;;;;;;;27.86;47.04;96454.84;5053623;28;20536;-55
2022/08/22 10:32:41;;;;;;;3.65;2.58;;;;;;;27.90;45.82;96447.81;5054033;28;20221;-54
2022/08/22 10:35:16;;;;;;;3.00;2.47;;;;;;;28.04;46.82;96443.59;5053767;28;20695;-54
2022/08/22 10:37:50;;;;;;;3.03;2.30;;;;;;;28.00;45.08;96445.19;5053853;28;20630;-52
2022/08/22 10:40:21;;;;;;;2.78;2.47;;;;;;;28.12;47.82;96437.75;5053990;28;20227;-50
2022/08/22 10:42:52;;;;;;;2.80;2.60;;;;;;;28.14;45.24;96444.56;5054007;28;20285;-54
2022/08/22 10:45:30;;;;;;;2.97;2.67;;;;;;;28.05;45.63;96446.09;5053726;28;20655;-55
2022/08/22 10:48:29;;;;;;;4.18;2.65;;;;;;;27.97;45.15;96445.72;5053646;28;20270;-53
2022/08/22 10:51:05;;;;;;;2.33;2.22;;;;;;;28.18;47.95;96445.69;5053263;28;20230;-54
2022/08/22 10:53:48;;;;;;;2.70;2.50;;;;;;;28.36;46.84;96440.94;5054165;28;20297;-53
2022/08/22 10:56:20;;;;;;;3.38;2.70;;;;;;;28.41;44.06;96441.78;5053785;28;20199;-54
2022/08/22 10:58:54;;;;;;;2.50;2.40;;;;;;;28.12;41.04;96440.47;5070579;28;20199;-54
2022/08/22 11:01:23;;;;;;;2.72;2.53;;;;;;;28.29;42.75;96438.44;5064562;28;20195;-55
2022/08/22 11:03:54;;;;;;;3.63;2.40;;;;;;;28.59;42.81;96437.84;5053335;28;20295;-55
2022/08/22 11:06:26;;;;;;;3.38;2.20;;;;;;;28.30;40.22;96441.97;5041959;28;20593;-54
2022/08/22 11:09:03;;;;;;;2.90;2.40;;;;;;;28.38;37.29;96439.56;5053283;28;20199;-55
2022/08/22 11:11:39;;;;;;;2.80;2.42;;;;;;;28.56;35.89;96441.91;5053970;28;20286;-55
2022/08/22 11:14:30;;;;;;;2.65;2.42;;;;;;;28.46;35.15;96436.38;5053447;28;20281;-54
2022/08/22 11:17:05;;;;;;;2.85;2.38;;;;;;;28.53;34.47;96431.53;5038152;28;20231;-53
2022/08/22 11:19:47;;;;;;;3.08;2.78;;;;;;;28.85;38.55;96422.50;5057553;28;20281;-55
2022/08/22 11:22:28;;;;;;;2.60;2.40;;;;;;;28.68;37.00;96422.69;5057551;28;20203;-53
2022/08/22 11:25:15;;;;;;;2.80;2.60;;;;;;;29.10;36.54;96422.66;5056686;28;20264;-50
2022/08/22 11:27:57;;;;;;;18.17;4.43;;;;;;;29.10;32.47;96419.94;5056857;28;20279;-50
2022/08/22 11:30:31;;;;;;;2.20;2.10;;;;;;;29.06;34.30;96424.25;5052823;28;20206;-52
2022/08/22 11:33:20;;;;;;;2.95;2.30;;;;;;;28.96;32.18;96419.59;5057209;28;20225;-49
2022/08/22 11:35:52;;;;;;;2.70;2.50;;;;;;;29.21;35.97;96429.78;5056635;28;20289;-50
2022/08/22 11:38:24;;;;;;;2.95;2.40;;;;;;;29.33;34.83;96411.34;5056676;28;20282;-51
2022/08/22 11:40:57;;;;;;;2.80;2.45;;;;;;;29.56;37.45;96416.31;5056908;28;20559;-50
2022/08/22 11:43:35;;;;;;;2.80;2.55;;;;;;;29.43;34.71;96411.38;5056589;28;20282;-49
2022/08/22 11:46:24;;;;;;;2.58;2.38;;;;;;;29.36;33.93;96408.09;5051762;28;20289;-51
2022/08/22 11:49:05;;;;;;;3.08;2.53;;;;;;;29.11;33.97;96402.50;5055963;28;20273;-51
2022/08/22 11:51:51;;;;;;;2.47;2.28;;;;;;;29.22;34.87;96403.38;5050353;28;20210;-52
2022/08/22 11:54:25;;;;;;;2.53;2.33;;;;;;;29.08;34.20;96387.53;5056389;28;20249;-50
2022/08/22 11:56:54;;;;;;;2.47;2.30;;;;;;;29.12;34.78;96401.44;5051820;28;20716;-50
2022/08/22 11:59:29;;;;;;;3.28;2.47;;;;;;;29.23;34.56;96392.19;5056455;28;20230;-50
2022/08/22 12:02:00;;;;;;;2.58;2.47;;;;;;;29.39;33.52;96395.84;5055528;28;20274;-50
2022/08/22 12:04:31;;;;;;;3.03;2.35;;;;;;;29.27;34.36;96393.34;5043990;28;20199;-50
2022/08/22 12:07:02;;;;;;;3.70;2.17;;;;;;;29.35;35.24;96394.72;5055962;28;20294;-50
2022/08/22 12:09:43;;;;;;;2.60;2.40;;;;;;;29.20;33.43;96392.72;5055710;28;20203;-51
2022/08/22 12:12:23;;;;;;;4.40;2.40;;;;;;;29.23;33.09;96388.69;5054067;28;20203;-51
2022/08/22 12:14:56;;;;;;;2.50;2.30;;;;;;;29.16;33.76;96383.44;5055657;28;20229;-51
2022/08/22 12:17:49;;;;;;;2.33;2.13;;;;;;;29.35;34.10;96381.94;5050522;28;20714;-51
2022/08/22 12:20:31;;;;;;;3.92;2.40;;;;;;;29.15;32.80;96384.56;5064771;28;20211;-51